^^
B2 Weather Station Historical Data
Daily Summary for December 29, 2018 Units:  Both    English   Metric
Daily Weekly Monthly Yearly Custom
  High: Low: Average:
Temperature: 27.7 °F /  -2.4 °C 23.9 °F /  -4.5 °C 26.7 °F /  -2.9 °C
Dew Point: 26 °F /  -3.3 °C 20 °F /  -6.7 °C 24.3 °F /  -4.3 °C
Humidity: 94% 85% 91%
Wind Speed: 17.3mph /  27.8km/h - 7.8mph /  12.6km/h
Wind Gust: 11.5mph /  18.5km/h - -
Wind- - West
Pressure: 30.38 in /  1028.7 hPa 30.19 in /  1022.2 hPa -
Precipitation: 0 in /  0 mm    
Historical Graphs
 
 
Tabular Data for December 29, 2018
Time Temperature Dew Point Pressure Wind Wind Speed Wind Gust Humidity Rainfall Rate (Hourly) solar
00:04 27.1 °F /  -2.7 °C 24.6 °F /  -4.1 °C 30.19in /  1022.2hPa WNW 11.5mph /  18.5km/h 7.9mph /  12.7km/h 90% 0in /  0mm 0.00 W/m2
00:09 26.9 °F /  -2.8 °C 24.4 °F /  -4.2 °C 30.20in /  1022.6hPa West 11.5mph /  18.5km/h 5.6mph /  9km/h 90% 0in /  0mm 0.00 W/m2
00:14 27 °F /  -2.8 °C 24.5 °F /  -4.2 °C 30.20in /  1022.6hPa West 11.5mph /  18.5km/h 7.6mph /  12.2km/h 90% 0in /  0mm 0.00 W/m2
00:19 27 °F /  -2.8 °C 24.5 °F /  -4.2 °C 30.20in /  1022.6hPa WSW 10.4mph /  16.7km/h 5mph /  8km/h 90% 0in /  0mm 0.00 W/m2
00:24 27 °F /  -2.8 °C 24.5 °F /  -4.2 °C 30.20in /  1022.6hPa West 12.7mph /  20.4km/h 8.1mph /  13km/h 90% 0in /  0mm 0.00 W/m2
00:29 26.9 °F /  -2.8 °C 24.4 °F /  -4.2 °C 30.20in /  1022.6hPa WSW 11mph /  17.7km/h 5.9mph /  9.5km/h 90% 0in /  0mm 0.00 W/m2
00:34 26.9 °F /  -2.8 °C 24.4 °F /  -4.2 °C 30.20in /  1022.6hPa North 10.4mph /  16.7km/h 8mph /  12.9km/h 90% 0in /  0mm 0.00 W/m2
00:39 26.9 °F /  -2.8 °C 24.4 °F /  -4.2 °C 30.21in /  1022.9hPa WSW 11.5mph /  18.5km/h 6.7mph /  10.8km/h 90% 0in /  0mm 0.00 W/m2
00:44 26.9 °F /  -2.8 °C 24.1 °F /  -4.4 °C 30.20in /  1022.6hPa West 11.5mph /  18.5km/h 7.2mph /  11.6km/h 89% 0in /  0mm 0.00 W/m2
00:49 26.9 °F /  -2.8 °C 24.4 °F /  -4.2 °C 30.21in /  1022.9hPa SW 9.2mph /  14.8km/h 6.9mph /  11.1km/h 90% 0in /  0mm 0.00 W/m2
00:54 26.9 °F /  -2.8 °C 24.1 °F /  -4.4 °C 30.21in /  1022.9hPa North 12mph /  19.3km/h 7.1mph /  11.4km/h 89% 0in /  0mm 0.00 W/m2
00:59 26.9 °F /  -2.8 °C 24.1 °F /  -4.4 °C 30.21in /  1022.9hPa SW 10.4mph /  16.7km/h 4.8mph /  7.7km/h 89% 0in /  0mm 0.00 W/m2
01:04 26.9 °F /  -2.8 °C 24.1 °F /  -4.4 °C 30.21in /  1022.9hPa WNW 9.2mph /  14.8km/h 4.5mph /  7.2km/h 89% 0in /  0mm 0.00 W/m2
01:09 26.9 °F /  -2.8 °C 24.1 °F /  -4.4 °C 30.21in /  1022.9hPa North 10.4mph /  16.7km/h 5.7mph /  9.2km/h 89% 0in /  0mm 0.00 W/m2
01:14 26.9 °F /  -2.8 °C 24.1 °F /  -4.4 °C 30.21in /  1022.9hPa North 9.2mph /  14.8km/h 5.1mph /  8.2km/h 89% 0in /  0mm 0.00 W/m2
01:19 26.9 °F /  -2.8 °C 24.1 °F /  -4.4 °C 30.21in /  1022.9hPa North 11.5mph /  18.5km/h 6.8mph /  10.9km/h 89% 0in /  0mm 0.00 W/m2
01:24 26.9 °F /  -2.8 °C 24.1 °F /  -4.4 °C 30.22in /  1023.2hPa WSW 11.5mph /  18.5km/h 6mph /  9.7km/h 89% 0in /  0mm 0.00 W/m2
01:29 26.9 °F /  -2.8 °C 24.1 °F /  -4.4 °C 30.22in /  1023.2hPa North 8mph /  12.9km/h 7.5mph /  12.1km/h 89% 0in /  0mm 0.00 W/m2
01:34 26.8 °F /  -2.9 °C 24 °F /  -4.4 °C 30.22in /  1023.2hPa SSW 10.4mph /  16.7km/h 5.8mph /  9.3km/h 89% 0in /  0mm 0.00 W/m2
01:39 26.9 °F /  -2.8 °C 24.1 °F /  -4.4 °C 30.22in /  1023.2hPa WSW 13.8mph /  22.2km/h 8.4mph /  13.5km/h 89% 0in /  0mm 0.00 W/m2
01:44 26.9 °F /  -2.8 °C 24.1 °F /  -4.4 °C 30.23in /  1023.6hPa WSW 6.9mph /  11.1km/h 5.9mph /  9.5km/h 89% 0in /  0mm 0.00 W/m2
01:49 26.9 °F /  -2.8 °C 24.1 °F /  -4.4 °C 30.23in /  1023.6hPa WSW 10.4mph /  16.7km/h 5.7mph /  9.2km/h 89% 0in /  0mm 0.00 W/m2
01:54 26.8 °F /  -2.9 °C 24 °F /  -4.4 °C 30.24in /  1023.9hPa North 9.2mph /  14.8km/h 3.5mph /  5.6km/h 89% 0in /  0mm 0.00 W/m2
01:59 26.9 °F /  -2.8 °C 24.1 °F /  -4.4 °C 30.24in /  1023.9hPa West 9.2mph /  14.8km/h 4.8mph /  7.7km/h 89% 0in /  0mm 0.00 W/m2
02:04 26.9 °F /  -2.8 °C 24.1 °F /  -4.4 °C 30.24in /  1023.9hPa NW 10.4mph /  16.7km/h 6.7mph /  10.8km/h 89% 0in /  0mm 0.00 W/m2
02:09 27 °F /  -2.8 °C 24.2 °F /  -4.3 °C 30.25in /  1024.3hPa SW 10.4mph /  16.7km/h 5.7mph /  9.2km/h 89% 0in /  0mm 0.00 W/m2
02:14 27 °F /  -2.8 °C 24.2 °F /  -4.3 °C 30.25in /  1024.3hPa North 11mph /  17.7km/h 4.8mph /  7.7km/h 89% 0in /  0mm 0.00 W/m2
02:19 27 °F /  -2.8 °C 24.2 °F /  -4.3 °C 30.25in /  1024.3hPa WNW 11.5mph /  18.5km/h 4.3mph /  6.9km/h 89% 0in /  0mm 0.00 W/m2
02:24 27 °F /  -2.8 °C 24.2 °F /  -4.3 °C 30.25in /  1024.3hPa West 9.2mph /  14.8km/h 3.7mph /  6km/h 89% 0in /  0mm 0.00 W/m2
02:29 27.1 °F /  -2.7 °C 24.3 °F /  -4.3 °C 30.25in /  1024.3hPa WNW 13mph /  20.9km/h 4.4mph /  7.1km/h 89% 0in /  0mm 0.00 W/m2
02:34 27.2 °F /  -2.7 °C 24.4 °F /  -4.2 °C 30.25in /  1024.3hPa WSW 8.1mph /  13km/h 2.3mph /  3.7km/h 89% 0in /  0mm 0.00 W/m2
02:39 27.2 °F /  -2.7 °C 24.4 °F /  -4.2 °C 30.25in /  1024.3hPa North 12.7mph /  20.4km/h 5.7mph /  9.2km/h 89% 0in /  0mm 0.00 W/m2
02:44 27.1 °F /  -2.7 °C 24 °F /  -4.4 °C 30.25in /  1024.3hPa WNW 10.4mph /  16.7km/h 6mph /  9.7km/h 88% 0in /  0mm 0.00 W/m2
02:49 27 °F /  -2.8 °C 23.9 °F /  -4.5 °C 30.25in /  1024.3hPa WNW 12.7mph /  20.4km/h 6.7mph /  10.8km/h 88% 0in /  0mm 0.00 W/m2
02:54 27 °F /  -2.8 °C 23.9 °F /  -4.5 °C 30.25in /  1024.3hPa North 11.5mph /  18.5km/h 6.8mph /  10.9km/h 88% 0in /  0mm 0.00 W/m2
02:59 27 °F /  -2.8 °C 23.9 °F /  -4.5 °C 30.25in /  1024.3hPa West 5.8mph /  9.3km/h 3.9mph /  6.3km/h 88% 0in /  0mm 0.00 W/m2
03:04 27 °F /  -2.8 °C 24.2 °F /  -4.3 °C 30.25in /  1024.3hPa WSW 6.9mph /  11.1km/h 4.5mph /  7.2km/h 89% 0in /  0mm 0.00 W/m2
03:09 27 °F /  -2.8 °C 23.9 °F /  -4.5 °C 30.25in /  1024.3hPa North 6.9mph /  11.1km/h 5.5mph /  8.9km/h 88% 0in /  0mm 0.00 W/m2
03:14 27 °F /  -2.8 °C 24.2 °F /  -4.3 °C 30.26in /  1024.6hPa North 10.4mph /  16.7km/h 3.5mph /  5.6km/h 89% 0in /  0mm 0.00 W/m2
03:19 27 °F /  -2.8 °C 23.9 °F /  -4.5 °C 30.26in /  1024.6hPa WSW 6.9mph /  11.1km/h 4.5mph /  7.2km/h 88% 0in /  0mm 0.00 W/m2
03:24 27 °F /  -2.8 °C 24.2 °F /  -4.3 °C 30.26in /  1024.6hPa West 10.4mph /  16.7km/h 3.9mph /  6.3km/h 89% 0in /  0mm 0.00 W/m2
03:29 27 °F /  -2.8 °C 24.2 °F /  -4.3 °C 30.26in /  1024.6hPa WSW 10mph /  16.1km/h 4.6mph /  7.4km/h 89% 0in /  0mm 0.00 W/m2
03:34 27 °F /  -2.8 °C 24.2 °F /  -4.3 °C 30.27in /  1024.9hPa WNW 9.2mph /  14.8km/h 5.7mph /  9.2km/h 89% 0in /  0mm 0.00 W/m2
03:39 27 °F /  -2.8 °C 24.2 °F /  -4.3 °C 30.27in /  1024.9hPa West 9.2mph /  14.8km/h 3.5mph /  5.6km/h 89% 0in /  0mm 0.00 W/m2
03:44 27 °F /  -2.8 °C 24.2 °F /  -4.3 °C 30.27in /  1024.9hPa North 9.2mph /  14.8km/h 6.3mph /  10.1km/h 89% 0in /  0mm 0.00 W/m2
03:49 27 °F /  -2.8 °C 24.2 °F /  -4.3 °C 30.27in /  1024.9hPa North 8mph /  12.9km/h 4.9mph /  7.9km/h 89% 0in /  0mm 0.00 W/m2
03:54 27 °F /  -2.8 °C 24.2 °F /  -4.3 °C 30.27in /  1024.9hPa North 9.2mph /  14.8km/h 5.1mph /  8.2km/h 89% 0in /  0mm 0.00 W/m2
03:59 27 °F /  -2.8 °C 24.2 °F /  -4.3 °C 30.27in /  1024.9hPa West 6.9mph /  11.1km/h 5mph /  8km/h 89% 0in /  0mm 0.00 W/m2
04:04 27 °F /  -2.8 °C 24.2 °F /  -4.3 °C 30.27in /  1024.9hPa WSW 5.8mph /  9.3km/h 3.5mph /  5.6km/h 89% 0in /  0mm 0.00 W/m2
04:09 27 °F /  -2.8 °C 24.2 °F /  -4.3 °C 30.27in /  1024.9hPa WNW 10.4mph /  16.7km/h 5.3mph /  8.5km/h 89% 0in /  0mm 0.00 W/m2
04:14 27 °F /  -2.8 °C 24.2 °F /  -4.3 °C 30.27in /  1024.9hPa WNW 11.5mph /  18.5km/h 7.3mph /  11.7km/h 89% 0in /  0mm 0.00 W/m2
04:19 27 °F /  -2.8 °C 24.2 °F /  -4.3 °C 30.27in /  1024.9hPa WSW 10.4mph /  16.7km/h 6.9mph /  11.1km/h 89% 0in /  0mm 0.00 W/m2
04:24 27 °F /  -2.8 °C 24.2 °F /  -4.3 °C 30.27in /  1024.9hPa WNW 9mph /  14.5km/h 4.8mph /  7.7km/h 89% 0in /  0mm 0.00 W/m2
04:29 27 °F /  -2.8 °C 24.2 °F /  -4.3 °C 30.27in /  1024.9hPa North 4.6mph /  7.4km/h 3.8mph /  6.1km/h 89% 0in /  0mm 0.00 W/m2
04:34 26.9 °F /  -2.8 °C 24.1 °F /  -4.4 °C 30.27in /  1024.9hPa WSW 11.5mph /  18.5km/h 4.7mph /  7.6km/h 89% 0in /  0mm 0.00 W/m2
04:39 26.9 °F /  -2.8 °C 24.4 °F /  -4.2 °C 30.27in /  1024.9hPa WNW 6.9mph /  11.1km/h 4mph /  6.4km/h 90% 0in /  0mm 0.00 W/m2
04:44 26.9 °F /  -2.8 °C 24.4 °F /  -4.2 °C 30.28in /  1025.3hPa WNW 8.1mph /  13km/h 4.6mph /  7.4km/h 90% 0in /  0mm 0.00 W/m2
04:49 26.9 °F /  -2.8 °C 24.4 °F /  -4.2 °C 30.28in /  1025.3hPa West 6.9mph /  11.1km/h 3mph /  4.8km/h 90% 0in /  0mm 0.00 W/m2
04:54 26.9 °F /  -2.8 °C 24.4 °F /  -4.2 °C 30.28in /  1025.3hPa WSW 6.9mph /  11.1km/h 3.4mph /  5.5km/h 90% 0in /  0mm 0.00 W/m2
04:59 26.8 °F /  -2.9 °C 24.3 °F /  -4.3 °C 30.29in /  1025.6hPa North 8.1mph /  13km/h 3.8mph /  6.1km/h 90% 0in /  0mm 0.00 W/m2
05:04 26.8 °F /  -2.9 °C 24.5 °F /  -4.2 °C 30.29in /  1025.6hPa WNW 8mph /  12.9km/h 3.9mph /  6.3km/h 91% 0in /  0mm 0.00 W/m2
05:09 26.7 °F /  -2.9 °C 24.4 °F /  -4.2 °C 30.30in /  1026hPa SW 8.1mph /  13km/h 6mph /  9.7km/h 91% 0in /  0mm 0.00 W/m2
05:14 26.7 °F /  -2.9 °C 24.4 °F /  -4.2 °C 30.30in /  1026hPa West 9.2mph /  14.8km/h 3.3mph /  5.3km/h 91% 0in /  0mm 0.00 W/m2
05:19 26.8 °F /  -2.9 °C 24.5 °F /  -4.2 °C 30.30in /  1026hPa North 7mph /  11.3km/h 4.1mph /  6.6km/h 91% 0in /  0mm 0.00 W/m2
05:24 26.8 °F /  -2.9 °C 24.5 °F /  -4.2 °C 30.31in /  1026.3hPa West 6.9mph /  11.1km/h 3.8mph /  6.1km/h 91% 0in /  0mm 0.00 W/m2
05:29 26.9 °F /  -2.8 °C 24.6 °F /  -4.1 °C 30.31in /  1026.3hPa WSW 5.8mph /  9.3km/h 4.2mph /  6.8km/h 91% 0in /  0mm 0.00 W/m2
05:34 26.9 °F /  -2.8 °C 24.6 °F /  -4.1 °C 30.31in /  1026.3hPa North 6.9mph /  11.1km/h 2.2mph /  3.5km/h 91% 0in /  0mm 0.00 W/m2
05:39 26.9 °F /  -2.8 °C 24.6 °F /  -4.1 °C 30.31in /  1026.3hPa WSW 6.9mph /  11.1km/h 3.4mph /  5.5km/h 91% 0in /  0mm 0.00 W/m2
05:44 26.9 °F /  -2.8 °C 24.9 °F /  -3.9 °C 30.32in /  1026.6hPa North 5.8mph /  9.3km/h 4.9mph /  7.9km/h 92% 0in /  0mm 0.00 W/m2
05:49 26.8 °F /  -2.9 °C 24.8 °F /  -4 °C 30.32in /  1026.6hPa North 8.1mph /  13km/h 4.8mph /  7.7km/h 92% 0in /  0mm 0.00 W/m2
05:54 26.7 °F /  -2.9 °C 24.7 °F /  -4.1 °C 30.32in /  1026.6hPa WNW 4.6mph /  7.4km/h 2.8mph /  4.5km/h 92% 0in /  0mm 0.00 W/m2
05:59 26.7 °F /  -2.9 °C 24.7 °F /  -4.1 °C 30.33in /  1027hPa North 4.6mph /  7.4km/h 3mph /  4.8km/h 92% 0in /  0mm 0.00 W/m2
06:04 26.6 °F /  -3 °C 24.6 °F /  -4.1 °C 30.33in /  1027hPa North 10.4mph /  16.7km/h 5.1mph /  8.2km/h 92% 0in /  0mm 0.00 W/m2
06:09 26.6 °F /  -3 °C 24.6 °F /  -4.1 °C 30.33in /  1027hPa West 9.2mph /  14.8km/h 2.7mph /  4.3km/h 92% 0in /  0mm 0.00 W/m2
06:14 26.6 °F /  -3 °C 24.6 °F /  -4.1 °C 30.33in /  1027hPa WSW 9.2mph /  14.8km/h 4.2mph /  6.8km/h 92% 0in /  0mm 0.00 W/m2
06:19 26.5 °F /  -3.1 °C 24.8 °F /  -4 °C 30.34in /  1027.3hPa SW 6.9mph /  11.1km/h 4.4mph /  7.1km/h 93% 0in /  0mm 0.00 W/m2
06:24 26.5 °F /  -3.1 °C 24.5 °F /  -4.2 °C 30.34in /  1027.3hPa West 4.6mph /  7.4km/h 2.3mph /  3.7km/h 92% 0in /  0mm 0.00 W/m2
06:29 26.5 °F /  -3.1 °C 24.8 °F /  -4 °C 30.34in /  1027.3hPa WSW 9.2mph /  14.8km/h 6.3mph /  10.1km/h 93% 0in /  0mm 0.00 W/m2
06:34 26.5 °F /  -3.1 °C 24.8 °F /  -4 °C 30.34in /  1027.3hPa WSW 11.5mph /  18.5km/h 6.5mph /  10.5km/h 93% 0in /  0mm 0.00 W/m2
06:39 26.5 °F /  -3.1 °C 24.8 °F /  -4 °C 30.34in /  1027.3hPa North 6.9mph /  11.1km/h 5.3mph /  8.5km/h 93% 0in /  0mm 0.00 W/m2
06:44 26.5 °F /  -3.1 °C 24.8 °F /  -4 °C 30.35in /  1027.7hPa WSW 4.6mph /  7.4km/h 1.9mph /  3.1km/h 93% 0in /  0mm 0.00 W/m2
06:49 26.5 °F /  -3.1 °C 24.8 °F /  -4 °C 30.35in /  1027.7hPa SW 8mph /  12.9km/h 4.8mph /  7.7km/h 93% 0in /  0mm 0.00 W/m2
06:54 26.4 °F /  -3.1 °C 24.7 °F /  -4.1 °C 30.35in /  1027.7hPa WSW 9.2mph /  14.8km/h 5.8mph /  9.3km/h 93% 0in /  0mm 0.00 W/m2
06:59 26.3 °F /  -3.2 °C 24.6 °F /  -4.1 °C 30.35in /  1027.7hPa North 7mph /  11.3km/h 4.7mph /  7.6km/h 93% 0in /  0mm 0.00 W/m2
07:04 26.3 °F /  -3.2 °C 24.6 °F /  -4.1 °C 30.35in /  1027.7hPa West 9.2mph /  14.8km/h 4.9mph /  7.9km/h 93% 0in /  0mm 0.00 W/m2
07:09 26.2 °F /  -3.2 °C 24.5 °F /  -4.2 °C 30.36in /  1028hPa West 10.4mph /  16.7km/h 5.8mph /  9.3km/h 93% 0in /  0mm 0.00 W/m2
07:14 26.2 °F /  -3.2 °C 24.5 °F /  -4.2 °C 30.36in /  1028hPa West 8.1mph /  13km/h 6.3mph /  10.1km/h 93% 0in /  0mm 0.00 W/m2
07:19 26.2 °F /  -3.2 °C 24.5 °F /  -4.2 °C 30.36in /  1028hPa SW 9.2mph /  14.8km/h 6mph /  9.7km/h 93% 0in /  0mm 0.00 W/m2
07:24 26.1 °F /  -3.3 °C 24.4 °F /  -4.2 °C 30.36in /  1028hPa WNW 11.5mph /  18.5km/h 5.5mph /  8.9km/h 93% 0in /  0mm 0.00 W/m2
07:29 26.1 °F /  -3.3 °C 24.4 °F /  -4.2 °C 30.36in /  1028hPa North 4.6mph /  7.4km/h 3.6mph /  5.8km/h 93% 0in /  0mm 0.00 W/m2
07:34 26.2 °F /  -3.2 °C 24.5 °F /  -4.2 °C 30.36in /  1028hPa North 11.5mph /  18.5km/h 5.9mph /  9.5km/h 93% 0in /  0mm 0.00 W/m2
07:39 26.1 °F /  -3.3 °C 24.4 °F /  -4.2 °C 30.37in /  1028.3hPa North 8.1mph /  13km/h 5.8mph /  9.3km/h 93% 0in /  0mm 0.00 W/m2
07:44 26.1 °F /  -3.3 °C 24.6 °F /  -4.1 °C 30.37in /  1028.3hPa West 8.1mph /  13km/h 5.3mph /  8.5km/h 94% 0in /  0mm 5.00 W/m2
07:49 26.1 °F /  -3.3 °C 24.6 °F /  -4.1 °C 30.37in /  1028.3hPa North 9.2mph /  14.8km/h 5mph /  8km/h 94% 0in /  0mm 5.00 W/m2
07:54 26.2 °F /  -3.2 °C 24.7 °F /  -4.1 °C 30.37in /  1028.3hPa WSW 8mph /  12.9km/h 6.8mph /  10.9km/h 94% 0in /  0mm 11.00 W/m2
07:59 26.1 °F /  -3.3 °C 24.6 °F /  -4.1 °C 30.37in /  1028.3hPa North 10.4mph /  16.7km/h 5mph /  8km/h 94% 0in /  0mm 12.00 W/m2
08:04 26.1 °F /  -3.3 °C 24.6 °F /  -4.1 °C 30.37in /  1028.3hPa SW 6mph /  9.7km/h 3.3mph /  5.3km/h 94% 0in /  0mm 14.00 W/m2
08:09 26.2 °F /  -3.2 °C 24.7 °F /  -4.1 °C 30.37in /  1028.3hPa WSW 4.6mph /  7.4km/h 4.2mph /  6.8km/h 94% 0in /  0mm 19.00 W/m2
08:14 26.2 °F /  -3.2 °C 24.7 °F /  -4.1 °C 30.38in /  1028.7hPa West 6.9mph /  11.1km/h 4.7mph /  7.6km/h 94% 0in /  0mm 19.00 W/m2
08:19 26.2 °F /  -3.2 °C 24.7 °F /  -4.1 °C 30.38in /  1028.7hPa North 4.6mph /  7.4km/h 3.8mph /  6.1km/h 94% 0in /  0mm 23.00 W/m2
08:24 26.2 °F /  -3.2 °C 24.7 °F /  -4.1 °C 30.38in /  1028.7hPa WSW 5.8mph /  9.3km/h 1.9mph /  3.1km/h 94% 0in /  0mm 26.00 W/m2
08:29 26.2 °F /  -3.2 °C 24.7 °F /  -4.1 °C 30.38in /  1028.7hPa WSW 5.8mph /  9.3km/h 3mph /  4.8km/h 94% 0in /  0mm 28.00 W/m2
08:34 26.2 °F /  -3.2 °C 24.7 °F /  -4.1 °C 30.38in /  1028.7hPa WNW 5.8mph /  9.3km/h 3.4mph /  5.5km/h 94% 0in /  0mm 30.00 W/m2
08:39 26.3 °F /  -3.2 °C 24.8 °F /  -4 °C 30.38in /  1028.7hPa WSW 1.2mph /  1.9km/h 0.4mph /  0.6km/h 94% 0in /  0mm 32.00 W/m2
08:44 26.3 °F /  -3.2 °C 24.8 °F /  -4 °C 30.38in /  1028.7hPa WNW 5mph /  8km/h 3.3mph /  5.3km/h 94% 0in /  0mm 33.00 W/m2
08:49 26.3 °F /  -3.2 °C 24.8 °F /  -4 °C 30.38in /  1028.7hPa North 6.9mph /  11.1km/h 1.6mph /  2.6km/h 94% 0in /  0mm 39.00 W/m2
08:54 26.4 °F /  -3.1 °C 24.9 °F /  -3.9 °C 30.38in /  1028.7hPa WNW 3.5mph /  5.6km/h 1.7mph /  2.7km/h 94% 0in /  0mm 46.00 W/m2
08:59 26.4 °F /  -3.1 °C 24.9 °F /  -3.9 °C 30.37in /  1028.3hPa WSW 3.5mph /  5.6km/h 2.3mph /  3.7km/h 94% 0in /  0mm 47.00 W/m2
09:04 26.5 °F /  -3.1 °C 25 °F /  -3.9 °C 30.37in /  1028.3hPa WSW 4.6mph /  7.4km/h 3.7mph /  6km/h 94% 0in /  0mm 53.00 W/m2
09:09 26.5 °F /  -3.1 °C 25 °F /  -3.9 °C 30.36in /  1028hPa WNW 2.3mph /  3.7km/h 1.9mph /  3.1km/h 94% 0in /  0mm 56.00 W/m2
09:14 26.5 °F /  -3.1 °C 25 °F /  -3.9 °C 30.36in /  1028hPa WNW 1.2mph /  1.9km/h   94% 0in /  0mm 65.00 W/m2
09:19 26.6 °F /  -3 °C 25.1 °F /  -3.8 °C 30.36in /  1028hPa WNW 2.3mph /  3.7km/h 0.5mph /  0.8km/h 94% 0in /  0mm 69.00 W/m2
09:24 26.7 °F /  -2.9 °C 25.2 °F /  -3.8 °C 30.36in /  1028hPa West 2.3mph /  3.7km/h 0.7mph /  1.1km/h 94% 0in /  0mm 70.00 W/m2
09:29 26.9 °F /  -2.8 °C 25.4 °F /  -3.7 °C 30.36in /  1028hPa West 3.5mph /  5.6km/h 0.3mph /  0.5km/h 94% 0in /  0mm 74.00 W/m2
09:34 27 °F /  -2.8 °C 25.5 °F /  -3.6 °C 30.37in /  1028.3hPa WSW 3.5mph /  5.6km/h 1.1mph /  1.8km/h 94% 0in /  0mm 63.00 W/m2
09:39 27 °F /  -2.8 °C 25.5 °F /  -3.6 °C 30.37in /  1028.3hPa West 2.3mph /  3.7km/h 0.2mph /  0.3km/h 94% 0in /  0mm 63.00 W/m2
09:44 27.1 °F /  -2.7 °C 25.6 °F /  -3.6 °C 30.37in /  1028.3hPa West 3.5mph /  5.6km/h 0.9mph /  1.4km/h 94% 0in /  0mm 63.00 W/m2
09:49 27.2 °F /  -2.7 °C 25.7 °F /  -3.5 °C 30.37in /  1028.3hPa North 3.5mph /  5.6km/h 1.8mph /  2.9km/h 94% 0in /  0mm 62.00 W/m2
09:54 27.2 °F /  -2.7 °C 25.7 °F /  -3.5 °C 30.37in /  1028.3hPa WSW 3.5mph /  5.6km/h 2.2mph /  3.5km/h 94% 0in /  0mm 62.00 W/m2
09:59 27.2 °F /  -2.7 °C 25.7 °F /  -3.5 °C 30.37in /  1028.3hPa North 3.5mph /  5.6km/h 1.5mph /  2.4km/h 94% 0in /  0mm 62.00 W/m2
10:04 27.3 °F /  -2.6 °C 25.8 °F /  -3.4 °C 30.37in /  1028.3hPa SW 3.5mph /  5.6km/h 2.7mph /  4.3km/h 94% 0in /  0mm 49.00 W/m2
10:09 27.2 °F /  -2.7 °C 25.7 °F /  -3.5 °C 30.38in /  1028.7hPa WSW 4mph /  6.4km/h 2.9mph /  4.7km/h 94% 0in /  0mm 51.00 W/m2
10:14 27.2 °F /  -2.7 °C 25.7 °F /  -3.5 °C 30.38in /  1028.7hPa SW 4mph /  6.4km/h 2.9mph /  4.7km/h 94% 0in /  0mm 47.00 W/m2
10:19 27.1 °F /  -2.7 °C 25.6 °F /  -3.6 °C 30.38in /  1028.7hPa SW 4.6mph /  7.4km/h 4.2mph /  6.8km/h 94% 0in /  0mm 44.00 W/m2
10:24 27 °F /  -2.8 °C 25.5 °F /  -3.6 °C 30.38in /  1028.7hPa SW 5mph /  8km/h 4.9mph /  7.9km/h 94% 0in /  0mm 42.00 W/m2
10:29 27 °F /  -2.8 °C 25.5 °F /  -3.6 °C 30.38in /  1028.7hPa West 2.3mph /  3.7km/h 2mph /  3.2km/h 94% 0in /  0mm 40.00 W/m2
10:34 27 °F /  -2.8 °C 25.5 °F /  -3.6 °C 30.37in /  1028.3hPa WSW 5.8mph /  9.3km/h 3.6mph /  5.8km/h 94% 0in /  0mm 44.00 W/m2
10:39 27 °F /  -2.8 °C 25.5 °F /  -3.6 °C 30.36in /  1028hPa North 5.8mph /  9.3km/h 3.2mph /  5.1km/h 94% 0in /  0mm 51.00 W/m2
10:44 26.9 °F /  -2.8 °C 25.4 °F /  -3.7 °C 30.36in /  1028hPa SW 4mph /  6.4km/h 2.5mph /  4km/h 94% 0in /  0mm 58.00 W/m2
10:49 26.9 °F /  -2.8 °C 25.4 °F /  -3.7 °C 30.36in /  1028hPa WSW 4.6mph /  7.4km/h 3mph /  4.8km/h 94% 0in /  0mm 58.00 W/m2
10:54 27 °F /  -2.8 °C 25.5 °F /  -3.6 °C 30.36in /  1028hPa WSW 5.8mph /  9.3km/h 2.7mph /  4.3km/h 94% 0in /  0mm 53.00 W/m2
10:59 27 °F /  -2.8 °C 25.5 °F /  -3.6 °C 30.36in /  1028hPa North 5.8mph /  9.3km/h 3.6mph /  5.8km/h 94% 0in /  0mm 54.00 W/m2
11:04 27.1 °F /  -2.7 °C 25.6 °F /  -3.6 °C 30.35in /  1027.7hPa WSW 3.5mph /  5.6km/h 3.5mph /  5.6km/h 94% 0in /  0mm 58.00 W/m2
11:09 27 °F /  -2.8 °C 25.5 °F /  -3.6 °C 30.35in /  1027.7hPa WSW 6.9mph /  11.1km/h 5mph /  8km/h 94% 0in /  0mm 63.00 W/m2
11:14 26.9 °F /  -2.8 °C 25.4 °F /  -3.7 °C 30.35in /  1027.7hPa WSW 5.8mph /  9.3km/h 4mph /  6.4km/h 94% 0in /  0mm 63.00 W/m2
11:19 27 °F /  -2.8 °C 25.5 °F /  -3.6 °C 30.35in /  1027.7hPa North 5.8mph /  9.3km/h 2.7mph /  4.3km/h 94% 0in /  0mm 65.00 W/m2
11:24 27 °F /  -2.8 °C 25.5 °F /  -3.6 °C 30.35in /  1027.7hPa WSW 4.6mph /  7.4km/h 3.2mph /  5.1km/h 94% 0in /  0mm 69.00 W/m2
11:29 27.1 °F /  -2.7 °C 25.6 °F /  -3.6 °C 30.34in /  1027.3hPa WNW 4mph /  6.4km/h 1.6mph /  2.6km/h 94% 0in /  0mm 77.00 W/m2
11:34 27 °F /  -2.8 °C 25.5 °F /  -3.6 °C 30.34in /  1027.3hPa WSW 4.6mph /  7.4km/h 5.1mph /  8.2km/h 94% 0in /  0mm 81.00 W/m2
11:39 27 °F /  -2.8 °C 25.5 °F /  -3.6 °C 30.34in /  1027.3hPa SW 5.8mph /  9.3km/h 3.3mph /  5.3km/h 94% 0in /  0mm 76.00 W/m2
11:44 27.1 °F /  -2.7 °C 25.6 °F /  -3.6 °C 30.34in /  1027.3hPa SW 5.8mph /  9.3km/h 2.8mph /  4.5km/h 94% 0in /  0mm 79.00 W/m2
11:49 27 °F /  -2.8 °C 25.5 °F /  -3.6 °C 30.34in /  1027.3hPa West 5.8mph /  9.3km/h 3.5mph /  5.6km/h 94% 0in /  0mm 77.00 W/m2
11:54 27 °F /  -2.8 °C 25.5 °F /  -3.6 °C 30.33in /  1027hPa West 4.6mph /  7.4km/h 1.5mph /  2.4km/h 94% 0in /  0mm 84.00 W/m2
11:59 27.1 °F /  -2.7 °C 25.6 °F /  -3.6 °C 30.33in /  1027hPa SW 6.9mph /  11.1km/h 4.2mph /  6.8km/h 94% 0in /  0mm 79.00 W/m2
12:04 27.1 °F /  -2.7 °C 25.6 °F /  -3.6 °C 30.33in /  1027hPa SW 5mph /  8km/h 4.5mph /  7.2km/h 94% 0in /  0mm 77.00 W/m2
12:09 27 °F /  -2.8 °C 25.5 °F /  -3.6 °C 30.33in /  1027hPa WSW 6.9mph /  11.1km/h 2.4mph /  3.9km/h 94% 0in /  0mm 83.00 W/m2
12:14 27 °F /  -2.8 °C 25.5 °F /  -3.6 °C 30.34in /  1027.3hPa West 4.6mph /  7.4km/h 3.3mph /  5.3km/h 94% 0in /  0mm 70.00 W/m2
12:19 27.1 °F /  -2.7 °C 25.6 °F /  -3.6 °C 30.34in /  1027.3hPa North 5mph /  8km/h 4.1mph /  6.6km/h 94% 0in /  0mm 65.00 W/m2
12:24 27.1 °F /  -2.7 °C 25.6 °F /  -3.6 °C 30.33in /  1027hPa WSW 5.8mph /  9.3km/h 3.3mph /  5.3km/h 94% 0in /  0mm 65.00 W/m2
12:29 27.1 °F /  -2.7 °C 25.6 °F /  -3.6 °C 30.33in /  1027hPa SW 4.6mph /  7.4km/h 3.7mph /  6km/h 94% 0in /  0mm 72.00 W/m2
12:34 27.2 °F /  -2.7 °C 25.7 °F /  -3.5 °C 30.33in /  1027hPa SW 8.1mph /  13km/h 2.8mph /  4.5km/h 94% 0in /  0mm 76.00 W/m2
12:39 27 °F /  -2.8 °C 25.5 °F /  -3.6 °C 30.33in /  1027hPa WSW 8.1mph /  13km/h 3.9mph /  6.3km/h 94% 0in /  0mm 70.00 W/m2
12:44 27 °F /  -2.8 °C 25.5 °F /  -3.6 °C 30.34in /  1027.3hPa SW 5.8mph /  9.3km/h 3.7mph /  6km/h 94% 0in /  0mm 72.00 W/m2
12:49 27.1 °F /  -2.7 °C 25.6 °F /  -3.6 °C 30.33in /  1027hPa SW 5.8mph /  9.3km/h 4.2mph /  6.8km/h 94% 0in /  0mm 65.00 W/m2
12:54 27.1 °F /  -2.7 °C 25.6 °F /  -3.6 °C 30.33in /  1027hPa WSW 5.8mph /  9.3km/h 2.2mph /  3.5km/h 94% 0in /  0mm 76.00 W/m2
12:59 27.1 °F /  -2.7 °C 25.6 °F /  -3.6 °C 30.32in /  1026.6hPa WSW 5mph /  8km/h 3.5mph /  5.6km/h 94% 0in /  0mm 81.00 W/m2
13:04 27.2 °F /  -2.7 °C 25.7 °F /  -3.5 °C 30.32in /  1026.6hPa North 3.5mph /  5.6km/h 2.4mph /  3.9km/h 94% 0in /  0mm 79.00 W/m2
13:09 27.2 °F /  -2.7 °C 25.7 °F /  -3.5 °C 30.32in /  1026.6hPa WSW 4.6mph /  7.4km/h 1.7mph /  2.7km/h 94% 0in /  0mm 70.00 W/m2
13:14 27.2 °F /  -2.7 °C 25.7 °F /  -3.5 °C 30.32in /  1026.6hPa WSW 9.2mph /  14.8km/h 4.1mph /  6.6km/h 94% 0in /  0mm 72.00 W/m2
13:19 27.2 °F /  -2.7 °C 25.7 °F /  -3.5 °C 30.32in /  1026.6hPa SW 5.8mph /  9.3km/h 4.2mph /  6.8km/h 94% 0in /  0mm 74.00 W/m2
13:24 27.2 °F /  -2.7 °C 25.7 °F /  -3.5 °C 30.32in /  1026.6hPa SW 5.8mph /  9.3km/h 3.4mph /  5.5km/h 94% 0in /  0mm 79.00 W/m2
13:29 27.3 °F /  -2.6 °C 25.8 °F /  -3.4 °C 30.32in /  1026.6hPa SW 4.6mph /  7.4km/h 3.2mph /  5.1km/h 94% 0in /  0mm 74.00 W/m2
13:34 27.4 °F /  -2.6 °C 25.9 °F /  -3.4 °C 30.32in /  1026.6hPa WSW 6.9mph /  11.1km/h 2.5mph /  4km/h 94% 0in /  0mm 49.00 W/m2
13:39 27.5 °F /  -2.5 °C 26 °F /  -3.3 °C 30.32in /  1026.6hPa SW 4.6mph /  7.4km/h 1.8mph /  2.9km/h 94% 0in /  0mm 76.00 W/m2
13:44 27.5 °F /  -2.5 °C 26 °F /  -3.3 °C 30.31in /  1026.3hPa North 5mph /  8km/h 1.3mph /  2.1km/h 94% 0in /  0mm 74.00 W/m2
13:49 27.4 °F /  -2.6 °C 25.9 °F /  -3.4 °C 30.31in /  1026.3hPa SW 4.6mph /  7.4km/h 3.4mph /  5.5km/h 94% 0in /  0mm 47.00 W/m2
13:54 27.4 °F /  -2.6 °C 25.9 °F /  -3.4 °C 30.31in /  1026.3hPa SW 3.5mph /  5.6km/h 2.3mph /  3.7km/h 94% 0in /  0mm 39.00 W/m2
13:59 27.4 °F /  -2.6 °C 25.9 °F /  -3.4 °C 30.31in /  1026.3hPa North 2.3mph /  3.7km/h 1.7mph /  2.7km/h 94% 0in /  0mm 39.00 W/m2
14:04 27.4 °F /  -2.6 °C 25.9 °F /  -3.4 °C 30.31in /  1026.3hPa West 3.5mph /  5.6km/h 2.2mph /  3.5km/h 94% 0in /  0mm 33.00 W/m2
14:09 27.4 °F /  -2.6 °C 25.9 °F /  -3.4 °C 30.31in /  1026.3hPa West 3.5mph /  5.6km/h 0.2mph /  0.3km/h 94% 0in /  0mm 35.00 W/m2
14:14 27.4 °F /  -2.6 °C 25.9 °F /  -3.4 °C 30.31in /  1026.3hPa North 5.8mph /  9.3km/h 2.1mph /  3.4km/h 94% 0in /  0mm 42.00 W/m2
14:19 27.4 °F /  -2.6 °C 25.9 °F /  -3.4 °C 30.31in /  1026.3hPa North 3.5mph /  5.6km/h 4mph /  6.4km/h 94% 0in /  0mm 47.00 W/m2
14:24 27.4 °F /  -2.6 °C 25.6 °F /  -3.6 °C 30.31in /  1026.3hPa SSW 3.5mph /  5.6km/h 0.8mph /  1.3km/h 93% 0in /  0mm 40.00 W/m2
14:29 27.4 °F /  -2.6 °C 25.6 °F /  -3.6 °C 30.31in /  1026.3hPa SW 3.5mph /  5.6km/h 3.4mph /  5.5km/h 93% 0in /  0mm 39.00 W/m2
14:34 27.4 °F /  -2.6 °C 25.6 °F /  -3.6 °C 30.31in /  1026.3hPa SW 3.5mph /  5.6km/h 1.9mph /  3.1km/h 93% 0in /  0mm 30.00 W/m2
14:39 27.4 °F /  -2.6 °C 25.6 °F /  -3.6 °C 30.31in /  1026.3hPa WSW 6.9mph /  11.1km/h 4.5mph /  7.2km/h 93% 0in /  0mm 35.00 W/m2
14:44 27.3 °F /  -2.6 °C 25.5 °F /  -3.6 °C 30.31in /  1026.3hPa WSW 4.6mph /  7.4km/h 2.2mph /  3.5km/h 93% 0in /  0mm 28.00 W/m2
14:49 27.3 °F /  -2.6 °C 25.5 °F /  -3.6 °C 30.31in /  1026.3hPa WSW 6.9mph /  11.1km/h 2.1mph /  3.4km/h 93% 0in /  0mm 23.00 W/m2
14:54 27.3 °F /  -2.6 °C 25.5 °F /  -3.6 °C 30.31in /  1026.3hPa SSW 5mph /  8km/h 3.1mph /  5km/h 93% 0in /  0mm 23.00 W/m2
14:59 27.3 °F /  -2.6 °C 25.5 °F /  -3.6 °C 30.32in /  1026.6hPa South 3.5mph /  5.6km/h 3.8mph /  6.1km/h 93% 0in /  0mm 21.00 W/m2
15:04 27.3 °F /  -2.6 °C 25.5 °F /  -3.6 °C 30.32in /  1026.6hPa SW 6mph /  9.7km/h 3.8mph /  6.1km/h 93% 0in /  0mm 16.00 W/m2
15:09 27.2 °F /  -2.7 °C 25.4 °F /  -3.7 °C 30.31in /  1026.3hPa SSW 9.2mph /  14.8km/h 5.5mph /  8.9km/h 93% 0in /  0mm 18.00 W/m2
15:14 27.3 °F /  -2.6 °C 25.5 °F /  -3.6 °C 30.31in /  1026.3hPa WSW 5.8mph /  9.3km/h 2.8mph /  4.5km/h 93% 0in /  0mm 14.00 W/m2
15:19 27.2 °F /  -2.7 °C 25.4 °F /  -3.7 °C 30.31in /  1026.3hPa SW 10.4mph /  16.7km/h 2.4mph /  3.9km/h 93% 0in /  0mm 12.00 W/m2
15:24 27.2 °F /  -2.7 °C 25.4 °F /  -3.7 °C 30.30in /  1026hPa South 3.5mph /  5.6km/h 2mph /  3.2km/h 93% 0in /  0mm 12.00 W/m2
15:29 27.3 °F /  -2.6 °C 25.5 °F /  -3.6 °C 30.30in /  1026hPa SW 4.6mph /  7.4km/h 2.6mph /  4.2km/h 93% 0in /  0mm 16.00 W/m2
15:34 27.2 °F /  -2.7 °C 25.4 °F /  -3.7 °C 30.30in /  1026hPa SSW 5.8mph /  9.3km/h 1.7mph /  2.7km/h 93% 0in /  0mm 14.00 W/m2
15:39 27.3 °F /  -2.6 °C 25.5 °F /  -3.6 °C 30.29in /  1025.6hPa SSW 5mph /  8km/h 2.1mph /  3.4km/h 93% 0in /  0mm 12.00 W/m2
15:44 27.4 °F /  -2.6 °C 25.6 °F /  -3.6 °C 30.30in /  1026hPa South 7mph /  11.3km/h 3.9mph /  6.3km/h 93% 0in /  0mm 14.00 W/m2
15:49 27.4 °F /  -2.6 °C 25.6 °F /  -3.6 °C 30.29in /  1025.6hPa SSW 3.5mph /  5.6km/h 0.5mph /  0.8km/h 93% 0in /  0mm 11.00 W/m2
15:54 27.4 °F /  -2.6 °C 25.4 °F /  -3.7 °C 30.28in /  1025.3hPa SW 6mph /  9.7km/h 2.7mph /  4.3km/h 92% 0in /  0mm 7.00 W/m2
15:59 27.4 °F /  -2.6 °C 25.4 °F /  -3.7 °C 30.28in /  1025.3hPa SSW 4.6mph /  7.4km/h 2.4mph /  3.9km/h 92% 0in /  0mm 7.00 W/m2
16:04 27.4 °F /  -2.6 °C 25.4 °F /  -3.7 °C 30.28in /  1025.3hPa SSW 3.5mph /  5.6km/h 0.8mph /  1.3km/h 92% 0in /  0mm 5.00 W/m2
16:10 27.4 °F /  -2.6 °C 25.4 °F /  -3.7 °C 30.28in /  1025.3hPa SW 3.5mph /  5.6km/h 1.3mph /  2.1km/h 92% 0in /  0mm 0.00 W/m2
16:14 27.3 °F /  -2.6 °C 25.3 °F /  -3.7 °C 30.28in /  1025.3hPa SW 8.1mph /  13km/h 3.1mph /  5km/h 92% 0in /  0mm 0.00 W/m2
16:19 27.3 °F /  -2.6 °C 25.3 °F /  -3.7 °C 30.29in /  1025.6hPa SW 5.8mph /  9.3km/h 3.9mph /  6.3km/h 92% 0in /  0mm 0.00 W/m2
16:24 27.2 °F /  -2.7 °C 25.2 °F /  -3.8 °C 30.29in /  1025.6hPa SSW 5.8mph /  9.3km/h 2.6mph /  4.2km/h 92% 0in /  0mm 0.00 W/m2
16:29 27.3 °F /  -2.6 °C 25.3 °F /  -3.7 °C 30.30in /  1026hPa SW 6mph /  9.7km/h 4mph /  6.4km/h 92% 0in /  0mm 0.00 W/m2
16:34 27.4 °F /  -2.6 °C 25.4 °F /  -3.7 °C 30.30in /  1026hPa SSW 5.8mph /  9.3km/h 4.1mph /  6.6km/h 92% 0in /  0mm 0.00 W/m2
16:39 27.4 °F /  -2.6 °C 25.1 °F /  -3.8 °C 30.30in /  1026hPa SSW 4.6mph /  7.4km/h 3.6mph /  5.8km/h 91% 0in /  0mm 0.00 W/m2
16:44 27.3 °F /  -2.6 °C 25 °F /  -3.9 °C 30.30in /  1026hPa SW 8mph /  12.9km/h 6mph /  9.7km/h 91% 0in /  0mm 0.00 W/m2
16:49 27.3 °F /  -2.6 °C 25 °F /  -3.9 °C 30.30in /  1026hPa WSW 9.2mph /  14.8km/h 2.8mph /  4.5km/h 91% 0in /  0mm 0.00 W/m2
16:54 27.4 °F /  -2.6 °C 25.1 °F /  -3.8 °C 30.30in /  1026hPa SW 4.6mph /  7.4km/h 4.3mph /  6.9km/h 91% 0in /  0mm 0.00 W/m2
16:59 27.4 °F /  -2.6 °C 25.1 °F /  -3.8 °C 30.30in /  1026hPa SSW 6.9mph /  11.1km/h 1.8mph /  2.9km/h 91% 0in /  0mm 0.00 W/m2
17:04 27.3 °F /  -2.6 °C 25 °F /  -3.9 °C 30.29in /  1025.6hPa South 5.8mph /  9.3km/h 2.6mph /  4.2km/h 91% 0in /  0mm 0.00 W/m2
17:09 27.3 °F /  -2.6 °C 25 °F /  -3.9 °C 30.29in /  1025.6hPa SW 5mph /  8km/h 1.9mph /  3.1km/h 91% 0in /  0mm 0.00 W/m2
17:14 27.4 °F /  -2.6 °C 25.1 °F /  -3.8 °C 30.29in /  1025.6hPa WSW 4mph /  6.4km/h 3.2mph /  5.1km/h 91% 0in /  0mm 0.00 W/m2
17:19 27.4 °F /  -2.6 °C 24.9 °F /  -3.9 °C 30.28in /  1025.3hPa SW 6.9mph /  11.1km/h 2.6mph /  4.2km/h 90% 0in /  0mm 0.00 W/m2
17:24 27.4 °F /  -2.6 °C 24.9 °F /  -3.9 °C 30.28in /  1025.3hPa SSW 6.9mph /  11.1km/h 2.3mph /  3.7km/h 90% 0in /  0mm 0.00 W/m2
17:29 27.4 °F /  -2.6 °C 24.9 °F /  -3.9 °C 30.27in /  1024.9hPa SW 4.6mph /  7.4km/h 1.3mph /  2.1km/h 90% 0in /  0mm 0.00 W/m2
17:34 27.5 °F /  -2.5 °C 25 °F /  -3.9 °C 30.27in /  1024.9hPa SSW 2.3mph /  3.7km/h 0.8mph /  1.3km/h 90% 0in /  0mm 0.00 W/m2
17:39 27.5 °F /  -2.5 °C 25 °F /  -3.9 °C 30.27in /  1024.9hPa SW 3.5mph /  5.6km/h 1.6mph /  2.6km/h 90% 0in /  0mm 0.00 W/m2
17:44 27.5 °F /  -2.5 °C 25 °F /  -3.9 °C 30.27in /  1024.9hPa SW 2.3mph /  3.7km/h 1.1mph /  1.8km/h 90% 0in /  0mm 0.00 W/m2
17:49 27.5 °F /  -2.5 °C 25 °F /  -3.9 °C 30.27in /  1024.9hPa SW 3.5mph /  5.6km/h 3mph /  4.8km/h 90% 0in /  0mm 0.00 W/m2
17:54 27.6 °F /  -2.4 °C 25.1 °F /  -3.8 °C 30.27in /  1024.9hPa SSW 4.6mph /  7.4km/h 2.2mph /  3.5km/h 90% 0in /  0mm 0.00 W/m2
17:59 27.5 °F /  -2.5 °C 25 °F /  -3.9 °C 30.27in /  1024.9hPa SSW 4mph /  6.4km/h 2.2mph /  3.5km/h 90% 0in /  0mm 0.00 W/m2
18:04 27.6 °F /  -2.4 °C 25.1 °F /  -3.8 °C 30.27in /  1024.9hPa SSW 4mph /  6.4km/h 3.1mph /  5km/h 90% 0in /  0mm 0.00 W/m2
18:09 27.6 °F /  -2.4 °C 25.1 °F /  -3.8 °C 30.27in /  1024.9hPa SW 6mph /  9.7km/h 2.6mph /  4.2km/h 90% 0in /  0mm 0.00 W/m2
18:14 27.6 °F /  -2.4 °C 25.1 °F /  -3.8 °C 30.27in /  1024.9hPa SSW 5mph /  8km/h 1.4mph /  2.3km/h 90% 0in /  0mm 0.00 W/m2
18:19 27.6 °F /  -2.4 °C 25.1 °F /  -3.8 °C 30.28in /  1025.3hPa South 9.2mph /  14.8km/h 6.2mph /  10km/h 90% 0in /  0mm 0.00 W/m2
18:24 27.7 °F /  -2.4 °C 25.2 °F /  -3.8 °C 30.28in /  1025.3hPa South 8.1mph /  13km/h 3.7mph /  6km/h 90% 0in /  0mm 0.00 W/m2
18:29 27.6 °F /  -2.4 °C 25.1 °F /  -3.8 °C 30.28in /  1025.3hPa South 4.6mph /  7.4km/h 5.1mph /  8.2km/h 90% 0in /  0mm 0.00 W/m2
18:34 27.6 °F /  -2.4 °C 24.8 °F /  -4 °C 30.28in /  1025.3hPa SW 6.9mph /  11.1km/h 3.8mph /  6.1km/h 89% 0in /  0mm 0.00 W/m2
18:39 27.5 °F /  -2.5 °C 24.7 °F /  -4.1 °C 30.28in /  1025.3hPa SW 8.1mph /  13km/h 5.1mph /  8.2km/h 89% 0in /  0mm 0.00 W/m2
18:44 27.5 °F /  -2.5 °C 24.4 °F /  -4.2 °C 30.28in /  1025.3hPa SSW 8.1mph /  13km/h 5.1mph /  8.2km/h 88% 0in /  0mm 0.00 W/m2
18:49 27.4 °F /  -2.6 °C 24.3 °F /  -4.3 °C 30.28in /  1025.3hPa South 8.1mph /  13km/h 4.8mph /  7.7km/h 88% 0in /  0mm 0.00 W/m2
18:54 27.4 °F /  -2.6 °C 24.3 °F /  -4.3 °C 30.28in /  1025.3hPa WSW 6.9mph /  11.1km/h 4.8mph /  7.7km/h 88% 0in /  0mm 0.00 W/m2
18:59 27.3 °F /  -2.6 °C 24.2 °F /  -4.3 °C 30.28in /  1025.3hPa SSW 6.9mph /  11.1km/h 4.2mph /  6.8km/h 88% 0in /  0mm 0.00 W/m2
19:04 27.2 °F /  -2.7 °C 24.1 °F /  -4.4 °C 30.29in /  1025.6hPa SW 12.7mph /  20.4km/h 4.3mph /  6.9km/h 88% 0in /  0mm 0.00 W/m2
19:09 27.1 °F /  -2.7 °C 23.7 °F /  -4.6 °C 30.28in /  1025.3hPa SW 12.7mph /  20.4km/h 7.3mph /  11.7km/h 87% 0in /  0mm 0.00 W/m2
19:14 27.1 °F /  -2.7 °C 23.7 °F /  -4.6 °C 30.28in /  1025.3hPa WSW 13mph /  20.9km/h 7.3mph /  11.7km/h 87% 0in /  0mm 0.00 W/m2
19:19 27 °F /  -2.8 °C 23.9 °F /  -4.5 °C 30.28in /  1025.3hPa WSW 10.4mph /  16.7km/h 6.2mph /  10km/h 88% 0in /  0mm 0.00 W/m2
19:24 27 °F /  -2.8 °C 23.9 °F /  -4.5 °C 30.28in /  1025.3hPa SW 11.5mph /  18.5km/h 6.9mph /  11.1km/h 88% 0in /  0mm 0.00 W/m2
19:29 26.8 °F /  -2.9 °C 23.7 °F /  -4.6 °C 30.27in /  1024.9hPa North 12.7mph /  20.4km/h 6.3mph /  10.1km/h 88% 0in /  0mm 0.00 W/m2
19:34 26.7 °F /  -2.9 °C 23.4 °F /  -4.8 °C 30.27in /  1024.9hPa SW 11.5mph /  18.5km/h 8mph /  12.9km/h 87% 0in /  0mm 0.00 W/m2
19:39 26.6 °F /  -3 °C 23.5 °F /  -4.7 °C 30.27in /  1024.9hPa WSW 11.5mph /  18.5km/h 8.7mph /  14km/h 88% 0in /  0mm 0.00 W/m2
19:44 26.6 °F /  -3 °C 23.5 °F /  -4.7 °C 30.27in /  1024.9hPa WSW 9.2mph /  14.8km/h 5.3mph /  8.5km/h 88% 0in /  0mm 0.00 W/m2
19:49 26.5 °F /  -3.1 °C 23.4 °F /  -4.8 °C 30.27in /  1024.9hPa SSW 9.2mph /  14.8km/h 6.1mph /  9.8km/h 88% 0in /  0mm 0.00 W/m2
19:54 26.4 °F /  -3.1 °C 23.3 °F /  -4.8 °C 30.27in /  1024.9hPa WSW 10.4mph /  16.7km/h 6.6mph /  10.6km/h 88% 0in /  0mm 0.00 W/m2
19:59 26.3 °F /  -3.2 °C 23 °F /  -5 °C 30.27in /  1024.9hPa North 12mph /  19.3km/h 8.2mph /  13.2km/h 87% 0in /  0mm 0.00 W/m2
20:04 26.2 °F /  -3.2 °C 22.9 °F /  -5.1 °C 30.27in /  1024.9hPa SSW 8.1mph /  13km/h 4.9mph /  7.9km/h 87% 0in /  0mm 0.00 W/m2
20:09 26.2 °F /  -3.2 °C 22.9 °F /  -5.1 °C 30.27in /  1024.9hPa SW 10.4mph /  16.7km/h 8.1mph /  13km/h 87% 0in /  0mm 0.00 W/m2
20:14 26.1 °F /  -3.3 °C 22.8 °F /  -5.1 °C 30.27in /  1024.9hPa SW 11.5mph /  18.5km/h 6mph /  9.7km/h 87% 0in /  0mm 0.00 W/m2
20:19 26.1 °F /  -3.3 °C 22.8 °F /  -5.1 °C 30.26in /  1024.6hPa SSW 8.1mph /  13km/h 2.7mph /  4.3km/h 87% 0in /  0mm 0.00 W/m2
20:24 26 °F /  -3.3 °C 22.7 °F /  -5.2 °C 30.26in /  1024.6hPa SW 12.7mph /  20.4km/h 5.5mph /  8.9km/h 87% 0in /  0mm 0.00 W/m2
20:29 26 °F /  -3.3 °C 22.7 °F /  -5.2 °C 30.25in /  1024.3hPa SSW 7mph /  11.3km/h 5.2mph /  8.4km/h 87% 0in /  0mm 0.00 W/m2
20:34 26 °F /  -3.3 °C 22.7 °F /  -5.2 °C 30.24in /  1023.9hPa SSW 10.4mph /  16.7km/h 6.6mph /  10.6km/h 87% 0in /  0mm 0.00 W/m2
20:39 26 °F /  -3.3 °C 22.7 °F /  -5.2 °C 30.25in /  1024.3hPa SSW 11.5mph /  18.5km/h 7.2mph /  11.6km/h 87% 0in /  0mm 0.00 W/m2
20:44 26 °F /  -3.3 °C 22.7 °F /  -5.2 °C 30.25in /  1024.3hPa SW 11.5mph /  18.5km/h 8.1mph /  13km/h 87% 0in /  0mm 0.00 W/m2
20:49 25.9 °F /  -3.4 °C 22.6 °F /  -5.2 °C 30.25in /  1024.3hPa WSW 11.5mph /  18.5km/h 8.3mph /  13.4km/h 87% 0in /  0mm 0.00 W/m2
20:54 25.8 °F /  -3.4 °C 22.5 °F /  -5.3 °C 30.25in /  1024.3hPa SW 9.2mph /  14.8km/h 5.8mph /  9.3km/h 87% 0in /  0mm 0.00 W/m2
20:59 25.8 °F /  -3.4 °C 22.5 °F /  -5.3 °C 30.25in /  1024.3hPa SSW 8.1mph /  13km/h 4.2mph /  6.8km/h 87% 0in /  0mm 0.00 W/m2
21:04 25.8 °F /  -3.4 °C 22.5 °F /  -5.3 °C 30.24in /  1023.9hPa WSW 9.2mph /  14.8km/h 3.9mph /  6.3km/h 87% 0in /  0mm 0.00 W/m2
21:09 25.7 °F /  -3.5 °C 22.4 °F /  -5.3 °C 30.24in /  1023.9hPa SW 11.5mph /  18.5km/h 6.8mph /  10.9km/h 87% 0in /  0mm 0.00 W/m2
21:14 25.7 °F /  -3.5 °C 22.4 °F /  -5.3 °C 30.24in /  1023.9hPa SSW 10.4mph /  16.7km/h 3.9mph /  6.3km/h 87% 0in /  0mm 0.00 W/m2
21:19 25.7 °F /  -3.5 °C 22.4 °F /  -5.3 °C 30.24in /  1023.9hPa WSW 6.9mph /  11.1km/h 5.3mph /  8.5km/h 87% 0in /  0mm 0.00 W/m2
21:24 25.7 °F /  -3.5 °C 22.4 °F /  -5.3 °C 30.24in /  1023.9hPa WSW 11.5mph /  18.5km/h 7.9mph /  12.7km/h 87% 0in /  0mm 0.00 W/m2
21:29 25.6 °F /  -3.6 °C 22.3 °F /  -5.4 °C 30.23in /  1023.6hPa West 17.3mph /  27.8km/h 8.1mph /  13km/h 87% 0in /  0mm 0.00 W/m2
21:34 25.5 °F /  -3.6 °C 22.2 °F /  -5.4 °C 30.23in /  1023.6hPa SW 10.4mph /  16.7km/h 3.7mph /  6km/h 87% 0in /  0mm 0.00 W/m2
21:39 25.5 °F /  -3.6 °C 22.2 °F /  -5.4 °C 30.23in /  1023.6hPa SW 9.2mph /  14.8km/h 4.1mph /  6.6km/h 87% 0in /  0mm 0.00 W/m2
21:44 25.5 °F /  -3.6 °C 22.2 °F /  -5.4 °C 30.24in /  1023.9hPa North 10.4mph /  16.7km/h 5.4mph /  8.7km/h 87% 0in /  0mm 0.00 W/m2
21:49 25.5 °F /  -3.6 °C 22.2 °F /  -5.4 °C 30.23in /  1023.6hPa SW 8.1mph /  13km/h 3.1mph /  5km/h 87% 0in /  0mm 0.00 W/m2
21:54 25.4 °F /  -3.7 °C 22.1 °F /  -5.5 °C 30.24in /  1023.9hPa WSW 11mph /  17.7km/h 8.5mph /  13.7km/h 87% 0in /  0mm 0.00 W/m2
21:59 25.3 °F /  -3.7 °C 21.7 °F /  -5.7 °C 30.24in /  1023.9hPa SSW 8mph /  12.9km/h 4.8mph /  7.7km/h 86% 0in /  0mm 0.00 W/m2
22:04 25.3 °F /  -3.7 °C 21.7 °F /  -5.7 °C 30.24in /  1023.9hPa North 10.4mph /  16.7km/h 8.6mph /  13.8km/h 86% 0in /  0mm 0.00 W/m2
22:09 25.2 °F /  -3.8 °C 21.6 °F /  -5.8 °C 30.24in /  1023.9hPa North 12.7mph /  20.4km/h 9.3mph /  15km/h 86% 0in /  0mm 0.00 W/m2
22:14 25.1 °F /  -3.8 °C 21.5 °F /  -5.8 °C 30.23in /  1023.6hPa WSW 15mph /  24.1km/h 11.5mph /  18.5km/h 86% 0in /  0mm 0.00 W/m2
22:19 25.1 °F /  -3.8 °C 21.5 °F /  -5.8 °C 30.23in /  1023.6hPa SW 9.2mph /  14.8km/h 7mph /  11.3km/h 86% 0in /  0mm 0.00 W/m2
22:24 25 °F /  -3.9 °C 21.4 °F /  -5.9 °C 30.23in /  1023.6hPa SW 10.4mph /  16.7km/h 7.5mph /  12.1km/h 86% 0in /  0mm 0.00 W/m2
22:29 25.1 °F /  -3.8 °C 21.5 °F /  -5.8 °C 30.23in /  1023.6hPa SW 10.4mph /  16.7km/h 6.4mph /  10.3km/h 86% 0in /  0mm 0.00 W/m2
22:34 25 °F /  -3.9 °C 21.4 °F /  -5.9 °C 30.23in /  1023.6hPa North 11.5mph /  18.5km/h 9.2mph /  14.8km/h 86% 0in /  0mm 0.00 W/m2
22:39 24.9 °F /  -3.9 °C 21 °F /  -6.1 °C 30.23in /  1023.6hPa SW 12.7mph /  20.4km/h 9.2mph /  14.8km/h 85% 0in /  0mm 0.00 W/m2
22:44 24.8 °F /  -4 °C 21.2 °F /  -6 °C 30.23in /  1023.6hPa SSW 11.5mph /  18.5km/h 8.7mph /  14km/h 86% 0in /  0mm 0.00 W/m2
22:49 24.7 °F /  -4.1 °C 20.8 °F /  -6.2 °C 30.23in /  1023.6hPa SW 15mph /  24.1km/h 6.1mph /  9.8km/h 85% 0in /  0mm 0.00 W/m2
22:54 24.6 °F /  -4.1 °C 20.7 °F /  -6.3 °C 30.23in /  1023.6hPa South 12mph /  19.3km/h 7mph /  11.3km/h 85% 0in /  0mm 0.00 W/m2
22:59 24.5 °F /  -4.2 °C 20.6 °F /  -6.3 °C 30.23in /  1023.6hPa SSW 12.7mph /  20.4km/h 6.8mph /  10.9km/h 85% 0in /  0mm 0.00 W/m2
23:04 24.5 °F /  -4.2 °C 20.6 °F /  -6.3 °C 30.23in /  1023.6hPa SSW 16.1mph /  25.9km/h 7.5mph /  12.1km/h 85% 0in /  0mm 0.00 W/m2
23:09 24.5 °F /  -4.2 °C 20.9 °F /  -6.2 °C 30.23in /  1023.6hPa SW 10.4mph /  16.7km/h 5.8mph /  9.3km/h 86% 0in /  0mm 0.00 W/m2
23:14 24.4 °F /  -4.2 °C 20.5 °F /  -6.4 °C 30.23in /  1023.6hPa SW 12.7mph /  20.4km/h 7.2mph /  11.6km/h 85% 0in /  0mm 0.00 W/m2
23:19 24.3 °F /  -4.3 °C 20.4 °F /  -6.4 °C 30.23in /  1023.6hPa WSW 17.3mph /  27.8km/h 7.8mph /  12.6km/h 85% 0in /  0mm 0.00 W/m2
23:24 24.1 °F /  -4.4 °C 20.2 °F /  -6.6 °C 30.23in /  1023.6hPa WSW 13.8mph /  22.2km/h 10mph /  16.1km/h 85% 0in /  0mm 0.00 W/m2
23:29 24.1 °F /  -4.4 °C 20.2 °F /  -6.6 °C 30.23in /  1023.6hPa WSW 11.5mph /  18.5km/h 8.6mph /  13.8km/h 85% 0in /  0mm 0.00 W/m2
23:34 24.1 °F /  -4.4 °C 20.2 °F /  -6.6 °C 30.23in /  1023.6hPa SW 12.7mph /  20.4km/h 8.1mph /  13km/h 85% 0in /  0mm 0.00 W/m2
23:39 24 °F /  -4.4 °C 20.1 °F /  -6.6 °C 30.23in /  1023.6hPa South 13.8mph /  22.2km/h 8.4mph /  13.5km/h 85% 0in /  0mm 0.00 W/m2
23:44 23.9 °F /  -4.5 °C 20 °F /  -6.7 °C 30.23in /  1023.6hPa SW 17.3mph /  27.8km/h 10.7mph /  17.2km/h 85% 0in /  0mm 0.00 W/m2
23:49 23.9 °F /  -4.5 °C 20 °F /  -6.7 °C 30.23in /  1023.6hPa SW 11.5mph /  18.5km/h 8.3mph /  13.4km/h 85% 0in /  0mm 0.00 W/m2
23:54 23.9 °F /  -4.5 °C 20 °F /  -6.7 °C 30.23in /  1023.6hPa WSW 11.5mph /  18.5km/h 6.5mph /  10.5km/h 85% 0in /  0mm 0.00 W/m2
23:59 24 °F /  -4.4 °C 20.4 °F /  -6.4 °C 30.23in /  1023.6hPa North 12mph /  19.3km/h 7.1mph /  11.4km/h 86% 0in /  0mm 0.00 W/m2
Bourbonnais, Illinois, USA
Compliments of Weather Underground - 4 mb